Terminal Aerodrome Forecast
Issued by NWS

Home | Current Version | Previous Version | Text Only | Print | Product List | Glossary On
Versions: 1 2 3 4 5 6 7 8 9 10 11 12 13 14 15 16 17 18
212
FTUS43 KUNR 272223 AAA
TAFGCC
TAF AMD
KGCC 272223Z 2722/2818 04010KT P6SM VCTS BKN080CB
      TEMPO 2722/2724 TSRA BKN060CB
     FM280400 15007KT P6SM BKN080
     FM281000 17011KT 4SM -SHRA OVC050=

USA.gov is the U.S. government's official web portal to all federal, state and local government web resources and services.